createdAt,value
2023-11-16T00:01:43.209Z,3.83
2023-11-16T00:04:49.646Z,3.20
2023-11-16T00:07:55.061Z,3.93
2023-11-16T00:11:01.470Z,3.23
2023-11-16T00:14:06.652Z,5.63
2023-11-16T00:17:10.284Z,3.80
2023-11-16T00:20:15.979Z,2.87
2023-11-16T00:23:19.805Z,2.90
2023-11-16T00:26:23.481Z,2.80
2023-11-16T00:29:27.289Z,3.13
2023-11-16T00:32:30.965Z,3.57
2023-11-16T00:35:36.095Z,3.07
2023-11-16T00:38:40.507Z,3.03
2023-11-16T00:41:44.888Z,3.23
2023-11-16T00:44:48.563Z,3.00
2023-11-16T00:47:52.964Z,2.60
2023-11-16T00:50:58.165Z,2.53
2023-11-16T00:54:03.326Z,2.03
2023-11-16T00:57:07.505Z,2.50
2023-11-16T01:00:13.159Z,2.20
2023-11-16T01:03:17.137Z,2.20
2023-11-16T01:06:22.343Z,1.67
2023-11-16T01:09:26.138Z,1.50
2023-11-16T01:12:29.983Z,1.87
2023-11-16T01:15:34.080Z,1.63
2023-11-16T01:18:39.441Z,1.33
2023-11-16T01:21:51.868Z,1.37
2023-11-16T01:24:55.770Z,1.17
2023-11-16T01:27:59.825Z,0.90
2023-11-16T01:31:04.634Z,1.83
2023-11-16T01:34:11.195Z,0.83
2023-11-16T01:37:16.403Z,0.93
2023-11-16T01:40:20.050Z,0.90
2023-11-16T01:43:24.128Z,1.33
2023-11-16T01:46:28.359Z,0.73
2023-11-16T01:49:33.014Z,1.17
2023-11-16T01:52:38.081Z,1.20
2023-11-16T01:55:45.812Z,0.93
2023-11-16T01:58:53.326Z,0.80
2023-11-16T02:01:58.184Z,0.70
2023-11-16T02:05:03.513Z,0.63
2023-11-16T02:08:12.266Z,1.00
2023-11-16T02:11:19.030Z,0.40
2023-11-16T02:14:23.279Z,0.80
2023-11-16T02:17:26.975Z,0.80
2023-11-16T02:20:31.154Z,1.43
2023-11-16T02:23:38.143Z,0.70
2023-11-16T02:26:43.585Z,0.77
2023-11-16T02:29:47.320Z,0.70
2023-11-16T02:32:51.510Z,1.00
2023-11-16T02:35:55.520Z,1.33
2023-11-16T02:39:02.426Z,1.03
2023-11-16T02:42:07.403Z,0.93
2023-11-16T02:45:12.932Z,0.83
2023-11-16T02:48:17.096Z,0.93
2023-11-16T02:51:22.079Z,1.30
2023-11-16T02:54:27.550Z,0.80
2023-11-16T02:57:31.285Z,0.73
2023-11-16T03:00:35.623Z,0.70
2023-11-16T03:03:39.548Z,0.60
2023-11-16T03:06:43.289Z,0.80
2023-11-16T03:09:48.359Z,1.73
2023-11-16T03:12:52.072Z,0.50
2023-11-16T03:15:55.677Z,0.83
2023-11-16T03:18:59.295Z,0.53
2023-11-16T03:22:04.925Z,0.60
2023-11-16T03:25:11.060Z,0.60
2023-11-16T03:28:14.686Z,1.00
2023-11-16T03:31:18.361Z,0.63
2023-11-16T03:34:21.992Z,0.60
2023-11-16T03:37:25.618Z,0.73
2023-11-16T03:40:31.898Z,0.63
2023-11-16T03:43:35.681Z,0.90
2023-11-16T03:46:39.564Z,0.70
2023-11-16T03:49:43.585Z,0.70
2023-11-16T03:52:47.391Z,0.30
2023-11-16T03:55:52.545Z,0.70
2023-11-16T03:58:56.232Z,0.30
2023-11-16T04:02:00.317Z,0.80
2023-11-16T04:05:05.967Z,0.60
2023-11-16T04:08:09.608Z,0.70
2023-11-16T04:11:14.587Z,0.50
2023-11-16T04:14:19.225Z,0.47
2023-11-16T04:17:22.953Z,0.47
2023-11-16T04:20:29.463Z,0.50
2023-11-16T04:23:33.073Z,0.30
2023-11-16T04:26:38.553Z,0.30
2023-11-16T04:29:44.082Z,0.37
2023-11-16T04:32:47.822Z,0.30
2023-11-16T04:35:53.564Z,0.50
2023-11-16T04:38:57.888Z,0.67
2023-11-16T04:42:03.038Z,0.87
2023-11-16T04:45:08.295Z,0.53
2023-11-16T04:48:12.777Z,0.30
2023-11-16T04:51:18.478Z,0.30
2023-11-16T04:54:22.392Z,0.50
2023-11-16T04:57:27.533Z,0.30
2023-11-16T05:00:31.344Z,0.30
2023-11-16T05:03:35.201Z,0.40
2023-11-16T05:06:42.585Z,0.90
2023-11-16T05:09:46.330Z,0.30
2023-11-16T05:12:51.956Z,0.27
2023-11-16T05:15:55.788Z,0.60
2023-11-16T05:18:59.591Z,0.50
2023-11-16T05:22:04.079Z,0.70
2023-11-16T05:25:09.026Z,0.57
2023-11-16T05:28:14.250Z,0.37
2023-11-16T05:31:17.961Z,0.37
2023-11-16T05:34:22.052Z,0.63
2023-11-16T05:37:25.845Z,0.43
2023-11-16T05:40:31.265Z,0.40
2023-11-16T05:43:36.923Z,0.23
2023-11-16T05:46:40.971Z,0.50
2023-11-16T05:49:44.528Z,0.47
2023-11-16T05:52:48.438Z,0.53
2023-11-16T05:55:53.605Z,0.50
2023-11-16T05:58:58.656Z,0.70
2023-11-16T06:02:02.312Z,0.40
2023-11-16T06:05:07.413Z,0.57
2023-11-16T06:08:11.083Z,0.60
2023-11-16T06:11:17.394Z,0.67
2023-11-16T06:14:30.699Z,0.60
2023-11-16T06:17:42.436Z,0.47
2023-11-16T06:20:46.503Z,0.47
2023-11-16T06:23:50.083Z,0.80
2023-11-16T06:26:54.761Z,0.70
2023-11-16T06:30:00.234Z,0.70
2023-11-16T06:33:03.975Z,0.70
2023-11-16T06:36:08.793Z,0.80
2023-11-16T06:39:13.103Z,0.77
2023-11-16T06:42:16.997Z,0.37
2023-11-16T06:45:33.536Z,0.80
2023-11-16T06:48:37.325Z,0.47
2023-11-16T06:51:41.009Z,0.70
2023-11-16T06:54:45.480Z,0.70
2023-11-16T06:57:51.611Z,0.57
2023-11-16T07:00:57.160Z,0.50
2023-11-16T07:04:00.906Z,0.80
2023-11-16T07:07:05.124Z,1.30
2023-11-16T07:10:11.094Z,0.97
2023-11-16T07:13:16.607Z,1.00
2023-11-16T07:16:24.113Z,0.50
2023-11-16T07:19:28.104Z,1.00
2023-11-16T07:22:31.773Z,0.97
2023-11-16T07:25:35.442Z,0.80
2023-11-16T07:28:40.556Z,0.70
2023-11-16T07:31:46.011Z,1.00
2023-11-16T07:34:49.644Z,0.90
2023-11-16T07:37:54.461Z,0.87
2023-11-16T07:40:58.452Z,0.90
2023-11-16T07:44:02.529Z,1.13
2023-11-16T07:47:10.167Z,0.63
2023-11-16T07:50:15.687Z,1.27
2023-11-16T07:53:19.454Z,0.80
2023-11-16T07:56:24.081Z,1.00
2023-11-16T07:59:32.813Z,0.60
2023-11-16T08:03:00.697Z,0.80
2023-11-16T08:06:05.074Z,0.77
2023-11-16T08:09:10.653Z,0.83
2023-11-16T08:12:16.645Z,1.00
2023-11-16T08:15:30.717Z,0.70
2023-11-16T08:18:36.543Z,0.70
2023-11-16T08:21:43.009Z,0.97
2023-11-16T08:24:46.825Z,0.70
2023-11-16T08:27:51.922Z,1.17
2023-11-16T08:30:55.642Z,0.63
2023-11-16T08:34:00.805Z,1.33
2023-11-16T08:37:04.488Z,1.33
2023-11-16T08:40:10.426Z,1.40
2023-11-16T08:43:14.227Z,0.90
2023-11-16T08:46:22.784Z,0.70
2023-11-16T08:49:33.068Z,0.67
2023-11-16T08:52:36.704Z,0.70
2023-11-16T08:55:40.373Z,0.80
2023-11-16T08:58:48.969Z,0.60
2023-11-16T09:01:53.286Z,0.90
2023-11-16T09:04:58.338Z,0.90
2023-11-16T09:08:03.333Z,1.10
2023-11-16T09:11:08.984Z,0.80
2023-11-16T09:14:12.674Z,0.87
2023-11-16T09:17:19.521Z,0.97
2023-11-16T09:20:30.859Z,1.17
2023-11-16T09:23:34.596Z,0.90
2023-11-16T09:26:38.914Z,0.90
2023-11-16T09:29:43.117Z,0.87
2023-11-16T09:32:47.460Z,1.57
2023-11-16T09:35:56.148Z,1.17
2023-11-16T09:38:59.777Z,0.90
2023-11-16T09:42:10.361Z,1.23
2023-11-16T09:45:16.463Z,1.10
2023-11-16T09:48:40.727Z,1.17
2023-11-16T09:51:47.569Z,0.90
2023-11-16T09:54:54.157Z,0.90
2023-11-16T09:58:00.366Z,1.00
2023-11-16T10:01:09.516Z,0.80
2023-11-16T10:04:14.457Z,1.10
2023-11-16T10:07:21.697Z,0.83
2023-11-16T10:10:29.538Z,0.87
2023-11-16T10:13:34.347Z,0.63
2023-11-16T10:16:38.160Z,0.87
2023-11-16T10:19:41.814Z,0.63
2023-11-16T10:22:47.812Z,1.00
2023-11-16T10:25:52.638Z,1.00
2023-11-16T10:28:56.267Z,0.70
2023-11-16T10:32:04.120Z,1.20
2023-11-16T10:35:14.094Z,0.90
2023-11-16T10:38:22.498Z,1.27
2023-11-16T10:41:26.581Z,1.00
2023-11-16T10:44:33.017Z,0.73
2023-11-16T10:47:38.516Z,0.80
2023-11-16T10:50:44.858Z,0.87
2023-11-16T10:53:55.342Z,0.90
2023-11-16T10:56:59.337Z,0.80
2023-11-16T11:00:04.653Z,0.70
2023-11-16T11:03:10.078Z,0.80
2023-11-16T11:06:22.396Z,0.93
2023-11-16T11:09:43.473Z,0.80
2023-11-16T11:12:48.340Z,0.73
2023-11-16T11:15:52.151Z,0.70
2023-11-16T11:18:56.182Z,0.90
2023-11-16T11:22:03.182Z,0.60
2023-11-16T11:25:11.470Z,0.80
2023-11-16T11:28:17.278Z,0.90
2023-11-16T11:31:36.055Z,0.67
2023-11-16T11:34:40.934Z,0.60
2023-11-16T11:37:44.580Z,1.00
2023-11-16T11:40:59.177Z,0.57
2023-11-16T11:44:06.855Z,0.70
2023-11-16T11:47:14.754Z,0.70
2023-11-16T11:50:20.605Z,0.87
2023-11-16T11:53:28.896Z,0.57
2023-11-16T11:56:34.593Z,1.20
2023-11-16T11:59:38.217Z,1.60
2023-11-16T12:02:43.295Z,1.07
2023-11-16T12:05:57.297Z,1.00
2023-11-16T12:09:00.864Z,1.50
2023-11-16T12:12:07.312Z,1.53
2023-11-16T12:15:12.238Z,0.90
2023-11-16T12:18:18.551Z,2.40
2023-11-16T12:21:23.638Z,1.37
2023-11-16T12:24:31.639Z,1.60
2023-11-16T12:27:42.426Z,1.20
2023-11-16T12:30:50.740Z,0.73
2023-11-16T12:33:55.523Z,1.70
2023-11-16T12:37:02.050Z,1.13
2023-11-16T12:40:10.626Z,0.73
2023-11-16T12:43:15.689Z,0.70
2023-11-16T12:46:20.684Z,0.87
2023-11-16T12:49:24.440Z,1.40
2023-11-16T12:52:28.827Z,1.10
2023-11-16T12:55:32.825Z,0.70
2023-11-16T12:58:40.181Z,1.30
2023-11-16T13:01:44.087Z,1.70
2023-11-16T13:04:47.737Z,1.37
2023-11-16T13:07:52.611Z,1.80
2023-11-16T13:10:56.827Z,1.37
2023-11-16T13:14:01.846Z,0.97
2023-11-16T13:17:06.260Z,1.33
2023-11-16T13:20:12.063Z,1.40
2023-11-16T13:23:16.317Z,1.07
2023-11-16T13:26:20.044Z,1.13
2023-11-16T13:29:25.171Z,0.83
2023-11-16T13:32:30.184Z,0.87
2023-11-16T13:35:34.124Z,1.00
2023-11-16T13:38:37.715Z,0.47
2023-11-16T13:41:41.382Z,0.80
2023-11-16T13:44:46.973Z,0.83
2023-11-16T13:47:50.802Z,0.90
2023-11-16T13:50:54.475Z,0.90
2023-11-16T13:53:58.732Z,0.90
2023-11-16T13:57:02.561Z,0.93
2023-11-16T14:00:10.690Z,0.60
2023-11-16T14:03:14.468Z,1.30
2023-11-16T14:06:18.242Z,1.33
2023-11-16T14:09:23.349Z,0.77
2023-11-16T14:12:27.460Z,0.80
2023-11-16T14:15:33.509Z,0.70
2023-11-16T14:18:38.352Z,1.80
2023-11-16T14:21:42.483Z,0.80
2023-11-16T14:24:47.829Z,0.87
2023-11-16T14:27:51.606Z,0.90
2023-11-16T14:30:56.704Z,0.50
2023-11-16T14:34:00.443Z,0.57
2023-11-16T14:37:05.731Z,0.83
2023-11-16T14:40:11.062Z,0.70
2023-11-16T14:43:15.119Z,0.70
2023-11-16T14:46:21.049Z,0.83
2023-11-16T14:49:24.759Z,0.80
2023-11-16T14:52:28.425Z,1.00
2023-11-16T14:55:32.285Z,0.80
2023-11-16T14:58:36.004Z,0.93
2023-11-16T15:01:41.031Z,1.00
2023-11-16T15:04:45.002Z,0.80
2023-11-16T15:07:48.662Z,1.07
2023-11-16T15:10:52.494Z,0.90
2023-11-16T15:14:01.384Z,0.77
2023-11-16T15:17:07.323Z,0.70
2023-11-16T15:20:24.273Z,0.90
2023-11-16T15:23:32.450Z,0.80
2023-11-16T15:26:47.817Z,0.73
2023-11-16T15:29:54.339Z,0.80
2023-11-16T15:32:59.370Z,1.10
2023-11-16T15:36:03.214Z,1.10
2023-11-16T15:39:11.545Z,0.90
2023-11-16T15:42:15.242Z,0.90
2023-11-16T15:45:32.109Z,0.80
2023-11-16T15:48:37.294Z,0.80
2023-11-16T15:51:41.295Z,0.90
2023-11-16T15:54:47.680Z,1.17
2023-11-16T15:57:52.029Z,0.67
2023-11-16T16:00:59.944Z,1.03
2023-11-16T16:04:05.356Z,0.80
2023-11-16T16:07:09.387Z,1.30
2023-11-16T16:10:13.410Z,1.20
2023-11-16T16:13:17.165Z,0.90
2023-11-16T16:16:21.027Z,1.30
2023-11-16T16:19:26.503Z,1.43
2023-11-16T16:22:30.308Z,6.50
2023-11-16T16:25:34.024Z,2.50
2023-11-16T16:28:37.752Z,2.57
2023-11-16T16:31:42.383Z,2.10
2023-11-16T16:34:47.666Z,2.17
2023-11-16T16:37:51.406Z,1.80
2023-11-16T16:40:55.038Z,1.60
2023-11-16T16:43:58.627Z,1.33
2023-11-16T16:47:02.383Z,1.40
2023-11-16T16:50:08.469Z,1.00
2023-11-16T16:53:12.179Z,1.00
2023-11-16T16:56:16.050Z,0.60
2023-11-16T16:59:19.882Z,1.03
2023-11-16T17:02:25.595Z,1.10
2023-11-16T17:05:30.827Z,1.03
2023-11-16T17:08:34.407Z,1.30
2023-11-16T17:11:38.014Z,2.27
2023-11-16T17:14:42.691Z,1.53
2023-11-16T17:17:46.392Z,1.00
2023-11-16T17:20:52.523Z,1.10
2023-11-16T17:23:56.146Z,1.00
2023-11-16T17:26:59.765Z,0.97
2023-11-16T17:30:03.904Z,1.10
2023-11-16T17:33:07.533Z,1.17
2023-11-16T17:36:13.000Z,1.00
2023-11-16T17:39:16.874Z,0.93
2023-11-16T17:42:20.591Z,0.93
2023-11-16T17:45:29.216Z,1.07
2023-11-16T17:48:33.753Z,0.83
2023-11-16T17:51:39.564Z,0.93
2023-11-16T17:54:43.335Z,0.70
2023-11-16T17:57:47.502Z,1.10
2023-11-16T18:00:51.685Z,0.90
2023-11-16T18:03:55.534Z,1.00
2023-11-16T18:07:01.664Z,1.20
2023-11-16T18:10:08.435Z,1.27
2023-11-16T18:13:19.278Z,0.87
2023-11-16T18:16:25.470Z,1.03
2023-11-16T18:19:29.257Z,1.10
2023-11-16T18:22:34.738Z,1.20
2023-11-16T18:25:41.561Z,1.30
2023-11-16T18:28:45.666Z,1.00
2023-11-16T18:31:50.782Z,1.43
2023-11-16T18:34:55.859Z,1.50
2023-11-16T18:38:00.868Z,1.00
2023-11-16T18:41:04.688Z,1.00
2023-11-16T18:44:08.571Z,1.50
2023-11-16T18:47:13.687Z,1.37
2023-11-16T18:50:17.582Z,1.33
2023-11-16T18:53:22.706Z,1.17
2023-11-16T18:56:27.075Z,1.30
2023-11-16T18:59:32.849Z,1.53
2023-11-16T19:02:37.699Z,1.20
2023-11-16T19:05:42.971Z,1.03
2023-11-16T19:08:48.003Z,1.10
2023-11-16T19:11:52.465Z,0.80
2023-11-16T19:14:56.253Z,1.33
2023-11-16T19:18:02.409Z,0.90
2023-11-16T19:21:06.889Z,1.20
2023-11-16T19:24:14.049Z,0.90
2023-11-16T19:27:18.318Z,1.10
2023-11-16T19:30:22.030Z,1.27
2023-11-16T19:33:25.775Z,1.50
2023-11-16T19:36:29.437Z,1.50
2023-11-16T19:39:42.813Z,2.03
2023-11-16T19:42:49.197Z,2.93
2023-11-16T19:45:52.880Z,1.83
2023-11-16T19:48:56.559Z,1.37
2023-11-16T19:52:00.219Z,1.60
2023-11-16T19:55:05.891Z,1.30
2023-11-16T19:58:11.128Z,1.67
2023-11-16T20:01:15.364Z,1.30
2023-11-16T20:04:19.201Z,1.10
2023-11-16T20:07:27.996Z,1.33
2023-11-16T20:10:39.035Z,1.67
2023-11-16T20:13:42.886Z,2.10
2023-11-16T20:16:46.555Z,1.60
2023-11-16T20:19:50.313Z,1.80
2023-11-16T20:22:54.861Z,2.07
2023-11-16T20:26:00.369Z,1.70
2023-11-16T20:29:06.208Z,2.13
2023-11-16T20:32:10.595Z,2.10
2023-11-16T20:35:15.115Z,2.13
2023-11-16T20:38:18.762Z,2.70
2023-11-16T20:41:34.764Z,1.87
2023-11-16T20:44:45.478Z,1.80
2023-11-16T20:47:49.295Z,2.37
2023-11-16T20:50:54.993Z,1.80
2023-11-16T20:53:58.662Z,1.60
2023-11-16T20:57:03.868Z,1.57
2023-11-16T21:00:10.744Z,1.53
2023-11-16T21:03:14.842Z,1.80
2023-11-16T21:06:18.742Z,1.70
2023-11-16T21:09:22.500Z,2.07
2023-11-16T21:12:27.869Z,2.00
2023-11-16T21:15:31.565Z,2.63
2023-11-16T21:18:35.215Z,2.40
2023-11-16T21:21:38.972Z,2.80
2023-11-16T21:24:43.023Z,2.33
2023-11-16T21:27:48.098Z,2.27
2023-11-16T21:30:52.092Z,2.20
2023-11-16T21:33:56.031Z,2.23
2023-11-16T21:36:59.967Z,2.00
2023-11-16T21:40:10.315Z,2.13
2023-11-16T21:43:15.670Z,3.10
2023-11-16T21:46:19.944Z,2.93
2023-11-16T21:49:23.858Z,4.20
2023-11-16T21:52:28.142Z,3.63
2023-11-16T21:55:31.712Z,3.90
2023-11-16T21:58:37.848Z,3.30
2023-11-16T22:01:41.650Z,2.83
2023-11-16T22:04:46.285Z,3.33
2023-11-16T22:07:50.438Z,2.80
2023-11-16T22:10:54.932Z,2.70
2023-11-16T22:14:00.243Z,2.30
2023-11-16T22:17:05.352Z,2.73
2023-11-16T22:20:14.415Z,2.57
2023-11-16T22:23:18.198Z,3.23
2023-11-16T22:26:22.219Z,4.27
2023-11-16T22:29:27.239Z,4.17
2023-11-16T22:32:31.885Z,4.00
2023-11-16T22:35:36.386Z,3.60
2023-11-16T22:38:39.965Z,3.93
2023-11-16T22:41:43.895Z,3.40
2023-11-16T22:44:48.895Z,3.03
2023-11-16T22:47:53.142Z,2.97
2023-11-16T22:50:56.798Z,3.53
2023-11-16T22:54:00.666Z,3.37
2023-11-16T22:57:04.545Z,2.73
2023-11-16T23:00:14.967Z,3.20
2023-11-16T23:03:19.463Z,3.33
2023-11-16T23:06:23.614Z,3.03
2023-11-16T23:09:27.285Z,2.50
2023-11-16T23:12:31.032Z,2.77
2023-11-16T23:15:36.485Z,2.60
2023-11-16T23:18:40.178Z,2.70
2023-11-16T23:21:44.228Z,3.23
2023-11-16T23:24:48.356Z,2.63
2023-11-16T23:27:52.045Z,2.87
2023-11-16T23:30:57.179Z,2.90
2023-11-16T23:34:01.782Z,3.37
2023-11-16T23:37:06.988Z,2.90
2023-11-16T23:40:13.211Z,2.97
2023-11-16T23:43:17.107Z,2.73
2023-11-16T23:46:22.920Z,2.83
2023-11-16T23:49:28.241Z,3.47
2023-11-16T23:52:33.120Z,3.67
2023-11-16T23:55:37.519Z,2.90
2023-11-16T23:58:41.128Z,3.30
